Time;durP1;ratioP1;P1;durP2;ratioP2;P2;SDS_P1;SDS_P2;PMS_P1;PMS_P2;Temp;Humidity;BMP_temperature;BMP_pressure;BME280_temperature;BME280_humidity;BME280_pressure;Samples;Min_cycle;Max_cycle;Signal;HPM_P1;HPM_P2
2024/03/05 00:01:14;;;;;;;12.73;8.60;;;;;;;;;;4992640;28;20254;-70
2024/03/05 00:03:40;;;;;;;14.80;8.33;;;;;;;;;;4993704;28;20292;-70
2024/03/05 00:06:06;;;;;;;19.57;9.77;;;;;;;;;;4971264;28;20287;-70
2024/03/05 00:08:31;;;;;;;17.10;9.33;;;;;;;;;;4990875;28;20258;-69
2024/03/05 00:10:56;;;;;;;20.57;11.13;;;;;;;;;;4991263;28;20667;-69
2024/03/05 00:13:22;;;;;;;14.67;9.47;;;;;;;;;;4988219;28;20180;-70
2024/03/05 00:15:47;;;;;;;20.17;11.03;;;;;;;;;;4989767;28;20215;-70
2024/03/05 00:18:12;;;;;;;19.53;11.03;;;;;;;;;;4980709;28;20230;-68
2024/03/05 00:20:37;;;;;;;19.80;10.63;;;;;;;;;;4979477;28;20207;-69
2024/03/05 00:23:03;;;;;;;19.73;10.00;;;;;;;;;;4991822;28;20253;-69
2024/03/05 00:25:28;;;;;;;20.97;10.83;;;;;;;;;;4984016;28;20231;-70
2024/03/05 00:27:54;;;;;;;21.40;9.10;;;;;;;;;;4975846;28;20179;-68
2024/03/05 00:30:19;;;;;;;18.13;9.70;;;;;;;;;;4974387;28;20180;-69
2024/03/05 00:32:45;;;;;;;16.90;10.20;;;;;;;;;;4989854;28;20523;-70
2024/03/05 00:35:10;;;;;;;20.93;11.60;;;;;;;;;;4991821;28;20675;-69
2024/03/05 00:37:36;;;;;;;21.80;11.53;;;;;;;;;;4992966;28;20176;-69
2024/03/05 00:40:06;;;;;;;18.87;10.90;;;;;;;;;;4993305;28;20544;-69
2024/03/05 00:42:31;;;;;;;16.97;10.50;;;;;;;;;;4986834;28;20222;-69
2024/03/05 00:44:56;;;;;;;21.43;11.57;;;;;;;;;;4990147;28;20318;-69
2024/03/05 00:47:21;;;;;;;26.53;11.93;;;;;;;;;;4990956;28;20222;-70
2024/03/05 00:49:47;;;;;;;19.60;11.90;;;;;;;;;;4985939;28;20202;-70
2024/03/05 00:52:12;;;;;;;22.87;11.73;;;;;;;;;;4989512;28;20183;-70
2024/03/05 00:54:39;;;;;;;24.13;10.90;;;;;;;;;;4991886;28;20211;-70
2024/03/05 00:57:04;;;;;;;20.37;11.60;;;;;;;;;;4992037;28;20602;-70
2024/03/05 00:59:29;;;;;;;20.80;12.90;;;;;;;;;;4991273;28;20270;-71
2024/03/05 01:01:55;;;;;;;20.40;11.13;;;;;;;;;;4994387;28;20806;-70
2024/03/05 01:04:21;;;;;;;17.43;10.80;;;;;;;;;;4993153;28;20203;-69
2024/03/05 01:06:46;;;;;;;22.53;11.30;;;;;;;;;;4970885;28;20184;-70
2024/03/05 01:09:16;;;;;;;15.70;9.80;;;;;;;;;;4983860;28;20222;-69
2024/03/05 01:11:41;;;;;;;18.47;10.20;;;;;;;;;;4989893;28;20194;-70
2024/03/05 01:14:06;;;;;;;20.23;11.30;;;;;;;;;;4989581;28;20175;-70
2024/03/05 01:16:31;;;;;;;24.27;11.90;;;;;;;;;;4985634;28;20187;-70
2024/03/05 01:18:56;;;;;;;21.10;10.90;;;;;;;;;;4974228;28;20563;-71
2024/03/05 01:21:22;;;;;;;22.97;11.30;;;;;;;;;;4973185;28;20294;-71
2024/03/05 01:23:48;;;;;;;18.17;10.43;;;;;;;;;;4973320;28;20246;-70
2024/03/05 01:26:13;;;;;;;20.13;10.53;;;;;;;;;;4982445;28;20196;-70
2024/03/05 01:28:39;;;;;;;23.30;13.10;;;;;;;;;;4984169;28;20167;-70
2024/03/05 01:31:04;;;;;;;22.53;12.90;;;;;;;;;;4989644;28;20172;-70
2024/03/05 01:33:29;;;;;;;21.43;11.00;;;;;;;;;;4968591;28;20187;-70
2024/03/05 01:35:56;;;;;;;21.60;11.70;;;;;;;;;;4990041;28;20671;-71
2024/03/05 01:38:21;;;;;;;20.47;11.53;;;;;;;;;;4971469;28;20191;-70
2024/03/05 01:40:47;;;;;;;20.40;11.80;;;;;;;;;;4988701;28;20183;-69
2024/03/05 01:43:12;;;;;;;25.17;12.27;;;;;;;;;;4989239;28;20277;-70
2024/03/05 01:45:37;;;;;;;22.57;11.90;;;;;;;;;;4988682;28;20195;-70
2024/03/05 01:48:04;;;;;;;26.23;12.23;;;;;;;;;;4989419;28;20181;-70
2024/03/05 01:50:30;;;;;;;22.03;12.07;;;;;;;;;;4973459;28;20659;-71
2024/03/05 01:52:55;;;;;;;28.50;13.07;;;;;;;;;;4990035;28;20194;-70
2024/03/05 01:55:21;;;;;;;26.50;13.40;;;;;;;;;;4981921;28;20592;-70
2024/03/05 01:57:48;;;;;;;26.27;13.03;;;;;;;;;;4972803;28;20179;-70
2024/03/05 02:00:15;;;;;;;26.47;13.03;;;;;;;;;;4971692;28;20651;-70
2024/03/05 02:02:42;;;;;;;25.57;12.97;;;;;;;;;;4985159;28;20705;-70
2024/03/05 02:05:08;;;;;;;26.50;12.93;;;;;;;;;;4989718;28;20199;-70
2024/03/05 02:07:35;;;;;;;24.23;12.87;;;;;;;;;;4973462;28;20274;-70
2024/03/05 02:10:07;;;;;;;31.57;14.50;;;;;;;;;;4987523;28;20191;-70
2024/03/05 02:12:33;;;;;;;32.60;15.03;;;;;;;;;;4972434;28;20218;-71
2024/03/05 02:14:58;;;;;;;33.70;14.67;;;;;;;;;;5005788;22;21135;-70
2024/03/05 02:17:23;;;;;;;30.40;15.10;;;;;;;;;;4993556;28;20267;-70
2024/03/05 02:19:52;;;;;;;37.73;15.10;;;;;;;;;;5003062;28;20179;-70
2024/03/05 02:22:17;;;;;;;30.13;14.70;;;;;;;;;;4987293;28;20795;-70
2024/03/05 02:24:42;;;;;;;28.60;14.07;;;;;;;;;;4998093;28;20266;-70
2024/03/05 02:27:08;;;;;;;31.00;14.93;;;;;;;;;;4988682;28;20239;-70
2024/03/05 02:29:38;;;;;;;35.60;15.73;;;;;;;;;;4982124;28;20208;-70
2024/03/05 02:32:06;;;;;;;34.57;15.67;;;;;;;;;;4985456;28;20194;-69
2024/03/05 02:34:31;;;;;;;30.37;15.00;;;;;;;;;;4980158;28;20581;-69
2024/03/05 02:36:57;;;;;;;29.93;14.23;;;;;;;;;;4988900;28;20183;-70
2024/03/05 02:39:23;;;;;;;28.03;15.10;;;;;;;;;;4971056;28;20207;-70
2024/03/05 02:41:48;;;;;;;37.83;16.27;;;;;;;;;;4972043;28;20196;-70
2024/03/05 02:44:13;;;;;;;30.37;14.03;;;;;;;;;;4982568;28;20179;-70
2024/03/05 02:46:39;;;;;;;37.10;14.73;;;;;;;;;;4984736;28;20193;-70
2024/03/05 02:49:04;;;;;;;34.77;16.47;;;;;;;;;;4986508;28;20684;-70
2024/03/05 02:51:29;;;;;;;33.07;14.97;;;;;;;;;;4984971;28;20199;-70
2024/03/05 02:53:55;;;;;;;34.03;15.27;;;;;;;;;;4974247;28;20663;-70
2024/03/05 02:56:20;;;;;;;38.77;16.50;;;;;;;;;;4988458;28;20219;-70
2024/03/05 02:58:45;;;;;;;33.40;15.93;;;;;;;;;;4993288;28;20188;-70
2024/03/05 03:01:10;;;;;;;44.50;18.10;;;;;;;;;;4975279;28;20176;-70
2024/03/05 03:03:36;;;;;;;35.17;16.87;;;;;;;;;;4987306;28;20176;-70
2024/03/05 03:06:02;;;;;;;37.03;16.60;;;;;;;;;;4991816;28;20203;-70
2024/03/05 03:08:27;;;;;;;31.93;15.87;;;;;;;;;;4987128;28;20199;-70
2024/03/05 03:10:52;;;;;;;45.47;18.47;;;;;;;;;;4970095;28;20184;-70
2024/03/05 03:13:18;;;;;;;38.30;16.63;;;;;;;;;;4965552;28;20215;-69
2024/03/05 03:15:43;;;;;;;37.23;16.33;;;;;;;;;;4988678;28;20219;-70
2024/03/05 03:18:08;;;;;;;40.07;17.97;;;;;;;;;;4991338;28;20183;-70
2024/03/05 03:20:34;;;;;;;44.73;19.60;;;;;;;;;;4987597;28;20172;-70
2024/03/05 03:23:00;;;;;;;41.63;17.77;;;;;;;;;;4983712;28;20219;-70
2024/03/05 03:25:25;;;;;;;37.23;18.67;;;;;;;;;;4972706;28;20335;-69
2024/03/05 03:27:50;;;;;;;47.87;21.73;;;;;;;;;;4984517;28;20188;-70
2024/03/05 03:30:20;;;;;;;45.43;20.40;;;;;;;;;;4983039;28;20654;-70
2024/03/05 03:32:45;;;;;;;42.40;19.27;;;;;;;;;;4981474;28;20186;-70
2024/03/05 03:35:13;;;;;;;44.40;19.40;;;;;;;;;;4980248;28;20207;-70
2024/03/05 03:37:38;;;;;;;39.93;19.63;;;;;;;;;;4986617;28;20632;-70
2024/03/05 03:40:08;;;;;;;47.27;19.93;;;;;;;;;;4989443;28;20270;-70
2024/03/05 03:42:33;;;;;;;44.70;21.20;;;;;;;;;;4990183;28;20673;-70
2024/03/05 03:44:58;;;;;;;48.57;19.37;;;;;;;;;;4985253;28;20243;-70
2024/03/05 03:47:23;;;;;;;46.43;20.90;;;;;;;;;;4983517;28;20179;-70
2024/03/05 03:49:48;;;;;;;44.90;19.47;;;;;;;;;;4991016;28;20192;-70
2024/03/05 03:52:14;;;;;;;47.30;21.47;;;;;;;;;;4989034;28;20237;-69
2024/03/05 03:54:40;;;;;;;48.40;20.10;;;;;;;;;;4973165;28;20650;-70
2024/03/05 03:57:06;;;;;;;47.03;20.60;;;;;;;;;;4987328;28;20184;-70
2024/03/05 03:59:32;;;;;;;44.33;20.47;;;;;;;;;;4982617;28;20187;-70
2024/03/05 04:01:58;;;;;;;50.00;21.83;;;;;;;;;;4979115;28;20207;-70
2024/03/05 04:04:23;;;;;;;52.07;24.13;;;;;;;;;;4991561;28;20222;-70
2024/03/05 04:06:49;;;;;;;49.57;20.90;;;;;;;;;;4988690;28;20210;-69
2024/03/05 04:09:14;;;;;;;52.43;21.60;;;;;;;;;;4988473;28;20172;-70
2024/03/05 04:11:40;;;;;;;53.63;22.03;;;;;;;;;;4976887;28;20675;-70
2024/03/05 04:14:05;;;;;;;51.67;21.87;;;;;;;;;;4975049;28;20700;-70
2024/03/05 04:16:31;;;;;;;53.27;23.13;;;;;;;;;;4971582;28;20255;-70
2024/03/05 04:18:57;;;;;;;51.87;23.17;;;;;;;;;;4986043;28;20575;-70
2024/03/05 04:21:23;;;;;;;50.20;22.20;;;;;;;;;;4985160;28;20195;-70
2024/03/05 04:23:48;;;;;;;49.83;22.47;;;;;;;;;;4991773;28;20226;-70
2024/03/05 04:26:13;;;;;;;52.13;22.67;;;;;;;;;;4974511;28;20199;-70
2024/03/05 04:28:48;;;;;;;51.37;21.97;;;;;;;;;;4986002;28;20165;-70
2024/03/05 04:31:17;;;;;;;48.80;22.47;;;;;;;;;;4986936;28;20183;-70
2024/03/05 04:33:43;;;;;;;54.97;22.97;;;;;;;;;;4985044;28;20171;-70
2024/03/05 04:36:14;;;;;;;53.90;23.33;;;;;;;;;;4986582;28;20202;-70
2024/03/05 04:38:40;;;;;;;50.63;23.23;;;;;;;;;;4988233;28;20176;-70
2024/03/05 04:41:06;;;;;;;53.70;22.63;;;;;;;;;;4989143;28;20616;-70
2024/03/05 04:43:31;;;;;;;53.70;23.50;;;;;;;;;;4989538;28;20203;-70
2024/03/05 04:45:56;;;;;;;52.67;22.50;;;;;;;;;;4980814;28;20683;-70
2024/03/05 04:48:22;;;;;;;48.17;21.53;;;;;;;;;;4981243;28;20176;-70
2024/03/05 04:50:47;;;;;;;51.20;22.10;;;;;;;;;;4983831;28;20199;-70
2024/03/05 04:53:12;;;;;;;41.43;20.30;;;;;;;;;;4981179;28;20545;-70
2024/03/05 04:55:38;;;;;;;50.90;24.07;;;;;;;;;;4986685;28;20218;-70
2024/03/05 04:58:05;;;;;;;49.90;22.53;;;;;;;;;;4983510;28;20179;-69
2024/03/05 05:00:30;;;;;;;52.87;22.67;;;;;;;;;;4979757;28;20238;-70
2024/03/05 05:02:55;;;;;;;44.80;22.47;;;;;;;;;;4968781;28;20675;-69
2024/03/05 05:05:24;;;;;;;45.60;21.43;;;;;;;;;;4980691;28;20451;-70
2024/03/05 05:07:49;;;;;;;44.33;22.00;;;;;;;;;;4983179;28;20183;-70
2024/03/05 05:10:15;;;;;;;47.10;21.70;;;;;;;;;;4991007;28;20274;-70
2024/03/05 05:12:40;;;;;;;47.10;21.50;;;;;;;;;;4971299;28;20262;-70
2024/03/05 05:15:06;;;;;;;48.27;22.07;;;;;;;;;;4985467;28;20214;-69
2024/03/05 05:17:32;;;;;;;41.30;21.23;;;;;;;;;;4967532;28;20238;-70
2024/03/05 05:19:58;;;;;;;45.93;21.80;;;;;;;;;;4984610;28;20178;-70
2024/03/05 05:22:23;;;;;;;45.67;21.17;;;;;;;;;;4986345;28;20250;-69
2024/03/05 05:24:49;;;;;;;50.07;21.70;;;;;;;;;;4984389;28;20199;-70
2024/03/05 05:27:14;;;;;;;42.73;20.53;;;;;;;;;;4968062;28;20176;-69
2024/03/05 05:29:39;;;;;;;41.23;20.13;;;;;;;;;;4981699;28;20183;-69
2024/03/05 05:32:06;;;;;;;49.53;21.03;;;;;;;;;;4986967;28;20699;-70
2024/03/05 05:34:32;;;;;;;45.77;22.47;;;;;;;;;;4982449;28;20311;-70
2024/03/05 05:36:57;;;;;;;43.37;21.67;;;;;;;;;;4979009;28;20217;-70
2024/03/05 05:39:24;;;;;;;44.57;21.17;;;;;;;;;;4983822;28;20598;-70
2024/03/05 05:41:50;;;;;;;40.47;20.87;;;;;;;;;;4987477;28;20299;-70
2024/03/05 05:44:15;;;;;;;40.83;20.83;;;;;;;;;;4989871;28;20255;-70
2024/03/05 05:46:40;;;;;;;42.30;20.90;;;;;;;;;;4981716;28;20199;-70
2024/03/05 05:49:05;;;;;;;41.93;20.47;;;;;;;;;;4982766;28;20563;-70
2024/03/05 05:51:31;;;;;;;47.33;21.07;;;;;;;;;;4986445;28;20770;-70
2024/03/05 05:53:57;;;;;;;42.90;22.13;;;;;;;;;;4967092;28;20185;-70
2024/03/05 05:56:22;;;;;;;45.40;20.63;;;;;;;;;;4967722;28;20226;-69
2024/03/05 05:58:48;;;;;;;44.57;20.97;;;;;;;;;;4985528;28;20183;-70
2024/03/05 06:01:13;;;;;;;41.50;20.93;;;;;;;;;;4966581;28;20187;-70
2024/03/05 06:03:40;;;;;;;42.80;20.67;;;;;;;;;;4983568;28;20529;-70
2024/03/05 06:06:07;;;;;;;41.37;20.83;;;;;;;;;;4983772;28;20218;-70
2024/03/05 06:08:33;;;;;;;43.93;21.63;;;;;;;;;;4982010;28;20676;-69
2024/03/05 06:10:58;;;;;;;44.20;20.93;;;;;;;;;;4982074;28;20255;-70
2024/03/05 06:13:24;;;;;;;46.03;22.07;;;;;;;;;;4969045;28;20196;-70
2024/03/05 06:15:50;;;;;;;42.43;19.83;;;;;;;;;;4983658;28;20215;-70
2024/03/05 06:18:15;;;;;;;43.73;23.03;;;;;;;;;;4969311;28;20698;-69
2024/03/05 06:20:42;;;;;;;42.10;21.40;;;;;;;;;;4990124;28;20191;-70
2024/03/05 06:23:07;;;;;;;47.10;22.30;;;;;;;;;;4988883;28;20207;-70
2024/03/05 06:25:33;;;;;;;43.93;22.47;;;;;;;;;;4985638;28;20557;-70
2024/03/05 06:27:59;;;;;;;55.57;22.97;;;;;;;;;;4989864;28;20176;-69
2024/03/05 06:30:26;;;;;;;54.27;24.80;;;;;;;;;;4972337;28;20222;-70
2024/03/05 06:32:51;;;;;;;53.43;23.53;;;;;;;;;;4985137;28;20255;-70
2024/03/05 06:35:22;;;;;;;47.73;22.27;;;;;;;;;;4988922;28;20286;-70
2024/03/05 06:37:48;;;;;;;48.00;22.87;;;;;;;;;;4985895;28;20182;-70
2024/03/05 06:40:13;;;;;;;43.33;22.10;;;;;;;;;;4989176;28;20548;-70
2024/03/05 06:42:41;;;;;;;42.57;21.30;;;;;;;;;;4975380;28;20203;-70
2024/03/05 06:45:06;;;;;;;41.83;22.40;;;;;;;;;;4988365;28;20200;-70
2024/03/05 06:47:39;;;;;;;47.33;21.53;;;;;;;;;;4991259;28;20211;-70
2024/03/05 06:50:07;;;;;;;46.17;23.20;;;;;;;;;;4993024;28;20205;-70
2024/03/05 06:58:04;;;;;;;43.90;20.67;;;;;;;;;;4987361;28;20503;-70
2024/03/05 07:00:29;;;;;;;45.00;20.73;;;;;;;;;;4984992;28;20199;-69
2024/03/05 07:02:54;;;;;;;43.77;21.13;;;;;;;;;;4983759;28;20195;-70
2024/03/05 07:05:19;;;;;;;41.83;21.60;;;;;;;;;;4985662;28;20202;-69
2024/03/05 07:07:45;;;;;;;38.70;20.10;;;;;;;;;;4988503;28;20180;-70
2024/03/05 07:10:13;;;;;;;49.00;21.03;;;;;;;;;;4982060;28;20631;-69
2024/03/05 07:12:40;;;;;;;41.57;20.57;;;;;;;;;;4986224;28;20184;-70
2024/03/05 07:15:09;;;;;;;40.73;20.17;;;;;;;;;;4981171;28;20216;-70
2024/03/05 07:17:34;;;;;;;43.73;20.77;;;;;;;;;;4982678;28;20194;-70
2024/03/05 07:20:03;;;;;;;42.97;21.90;;;;;;;;;;4984885;28;20180;-70
2024/03/05 07:22:28;;;;;;;45.90;21.57;;;;;;;;;;4972432;28;20227;-70
2024/03/05 07:24:53;;;;;;;42.00;20.07;;;;;;;;;;4986494;28;20196;-70
2024/03/05 07:27:18;;;;;;;51.97;22.20;;;;;;;;;;4982762;28;20604;-70
2024/03/05 07:29:44;;;;;;;46.10;23.70;;;;;;;;;;4988254;28;20194;-70
2024/03/05 07:32:10;;;;;;;41.83;21.23;;;;;;;;;;4984047;28;20664;-70
2024/03/05 07:34:36;;;;;;;45.53;22.13;;;;;;;;;;4987353;28;20195;-69
2024/03/05 07:37:05;;;;;;;41.63;21.77;;;;;;;;;;4970108;28;20241;-70
2024/03/05 07:39:31;;;;;;;41.87;19.63;;;;;;;;;;4967161;28;20187;-70
2024/03/05 07:41:57;;;;;;;46.27;24.33;;;;;;;;;;4988023;28;20202;-69
2024/03/05 07:44:23;;;;;;;45.60;22.60;;;;;;;;;;4989524;28;20226;-70
2024/03/05 07:46:48;;;;;;;43.97;22.60;;;;;;;;;;4973807;28;20277;-69
2024/03/05 07:49:13;;;;;;;41.90;22.30;;;;;;;;;;4989144;28;20168;-70
2024/03/05 07:51:38;;;;;;;42.93;22.80;;;;;;;;;;4991834;28;20226;-70
2024/03/05 07:54:03;;;;;;;51.40;22.47;;;;;;;;;;4990412;28;20187;-70
2024/03/05 07:56:29;;;;;;;43.70;22.07;;;;;;;;;;4992698;28;20214;-70
2024/03/05 07:58:55;;;;;;;45.47;24.43;;;;;;;;;;4971388;28;20177;-70
2024/03/05 08:01:21;;;;;;;49.40;21.80;;;;;;;;;;4973952;28;20703;-70
2024/03/05 08:03:46;;;;;;;50.67;22.57;;;;;;;;;;4984613;28;20279;-70
2024/03/05 08:06:11;;;;;;;50.07;23.83;;;;;;;;;;4986643;28;20191;-70
2024/03/05 08:08:37;;;;;;;47.37;23.60;;;;;;;;;;4988354;28;20558;-69
2024/03/05 08:11:02;;;;;;;44.03;23.57;;;;;;;;;;4974560;28;20680;-69
2024/03/05 08:13:28;;;;;;;46.63;24.07;;;;;;;;;;4990407;28;20215;-69
2024/03/05 08:15:53;;;;;;;50.40;22.63;;;;;;;;;;4992925;23;20218;-72
2024/03/05 08:18:19;;;;;;;55.77;24.37;;;;;;;;;;5007156;28;20203;-69
2024/03/05 08:20:44;;;;;;;50.20;25.10;;;;;;;;;;4999642;28;20179;-70
2024/03/05 08:23:09;;;;;;;48.80;24.27;;;;;;;;;;5006100;28;20210;-70
2024/03/05 08:25:35;;;;;;;54.10;26.50;;;;;;;;;;4985995;28;20203;-69
2024/03/05 08:28:02;;;;;;;48.60;23.13;;;;;;;;;;4983305;28;20177;-70
2024/03/05 08:30:32;;;;;;;51.73;24.10;;;;;;;;;;4985606;28;20215;-70
2024/03/05 08:32:57;;;;;;;51.30;24.40;;;;;;;;;;4975421;28;20184;-70
2024/03/05 08:35:25;;;;;;;53.77;25.33;;;;;;;;;;4993253;28;20191;-69
2024/03/05 08:37:50;;;;;;;50.57;23.83;;;;;;;;;;4986422;28;20245;-70
2024/03/05 08:40:17;;;;;;;45.37;23.47;;;;;;;;;;4979563;28;20212;-70
2024/03/05 08:42:46;;;;;;;51.70;24.00;;;;;;;;;;4984889;28;20218;-70
2024/03/05 08:45:12;;;;;;;47.87;23.50;;;;;;;;;;4993245;28;20199;-69
2024/03/05 08:47:38;;;;;;;45.90;22.43;;;;;;;;;;4992349;28;20179;-71
2024/03/05 08:50:03;;;;;;;49.40;24.50;;;;;;;;;;4992481;28;20529;-71
2024/03/05 08:52:29;;;;;;;46.50;23.43;;;;;;;;;;4992131;28;20205;-71
2024/03/05 08:54:55;;;;;;;44.83;23.07;;;;;;;;;;4972018;28;20203;-70
2024/03/05 08:57:20;;;;;;;44.23;23.67;;;;;;;;;;4987158;28;20176;-70
2024/03/05 08:59:45;;;;;;;48.07;24.47;;;;;;;;;;4986443;28;20258;-71
2024/03/05 09:02:10;;;;;;;44.87;23.47;;;;;;;;;;4984298;28;20656;-70
2024/03/05 09:04:36;;;;;;;51.27;23.43;;;;;;;;;;4974441;28;20187;-69
2024/03/05 09:07:01;;;;;;;42.13;24.10;;;;;;;;;;4991942;28;20283;-70
2024/03/05 09:09:30;;;;;;;47.63;23.33;;;;;;;;;;4992528;28;20179;-70
2024/03/05 09:11:56;;;;;;;44.90;23.50;;;;;;;;;;4970196;28;20176;-70
2024/03/05 09:14:21;;;;;;;42.47;24.80;;;;;;;;;;4991202;28;20183;-70
2024/03/05 09:16:46;;;;;;;46.13;23.27;;;;;;;;;;4991449;28;20212;-69
2024/03/05 09:19:13;;;;;;;42.90;23.50;;;;;;;;;;4979096;28;20647;-70
2024/03/05 09:21:38;;;;;;;49.10;23.77;;;;;;;;;;4969169;28;20204;-70
2024/03/05 09:24:06;;;;;;;47.57;24.97;;;;;;;;;;4992125;28;20608;-70
2024/03/05 09:26:31;;;;;;;45.27;23.50;;;;;;;;;;4987395;28;20284;-69
2024/03/05 09:28:57;;;;;;;46.30;23.63;;;;;;;;;;4979980;28;20230;-71
2024/03/05 09:31:22;;;;;;;45.17;24.47;;;;;;;;;;4973345;28;20853;-71
2024/03/05 09:33:47;;;;;;;46.33;23.90;;;;;;;;;;4984867;28;20179;-70
2024/03/05 09:36:13;;;;;;;46.10;24.10;;;;;;;;;;4988712;28;20188;-71
2024/03/05 09:38:38;;;;;;;47.63;22.23;;;;;;;;;;4991747;28;20226;-70
2024/03/05 09:41:04;;;;;;;45.03;23.33;;;;;;;;;;4983743;28;20172;-71
2024/03/05 09:43:29;;;;;;;45.57;23.23;;;;;;;;;;4987275;28;20207;-70
2024/03/05 09:45:58;;;;;;;50.47;23.50;;;;;;;;;;4988969;28;20195;-69
2024/03/05 09:48:24;;;;;;;44.17;25.23;;;;;;;;;;4987476;28;20168;-70
2024/03/05 09:50:49;;;;;;;43.47;24.57;;;;;;;;;;4991166;28;20649;-69
2024/03/05 09:53:15;;;;;;;43.70;23.40;;;;;;;;;;4991663;28;20171;-71
2024/03/05 09:55:40;;;;;;;50.93;23.53;;;;;;;;;;4990841;28;20779;-71
2024/03/05 09:58:09;;;;;;;49.57;22.97;;;;;;;;;;4983258;28;20186;-71
2024/03/05 10:00:37;;;;;;;38.47;20.93;;;;;;;;;;4969683;28;20182;-71
2024/03/05 10:03:02;;;;;;;44.50;22.17;;;;;;;;;;4991523;28;20203;-70
2024/03/05 10:05:30;;;;;;;40.93;21.60;;;;;;;;;;4993548;28;20195;-71
2024/03/05 10:07:56;;;;;;;37.40;19.90;;;;;;;;;;4992038;28;20179;-70
2024/03/05 10:10:21;;;;;;;43.33;21.57;;;;;;;;;;4991423;28;20176;-71
2024/03/05 10:12:47;;;;;;;33.17;17.30;;;;;;;;;;4989999;28;20253;-71
2024/03/05 10:15:23;;;;;;;38.57;19.60;;;;;;;;;;4995147;28;20199;-70
2024/03/05 10:17:49;;;;;;;33.47;19.17;;;;;;;;;;4988606;28;20286;-70
2024/03/05 10:20:26;;;;;;;35.40;20.33;;;;;;;;;;4970884;28;20177;-70
2024/03/05 10:22:52;;;;;;;33.27;17.40;;;;;;;;;;4994425;28;20206;-70
2024/03/05 10:25:17;;;;;;;35.10;16.53;;;;;;;;;;4990417;28;20319;-70
2024/03/05 10:27:44;;;;;;;23.97;14.57;;;;;;;;;;4977978;28;20647;-71
2024/03/05 10:30:42;;;;;;;28.52;15.57;;;;;;;;;;4977881;28;20180;-70
2024/03/05 10:33:08;;;;;;;24.30;14.55;;;;;;;;;;4972244;28;20191;-70
2024/03/05 10:35:33;;;;;;;29.70;15.93;;;;;;;;;;4991602;28;20214;-69
2024/03/05 10:38:03;;;;;;;32.53;17.73;;;;;;;;;;4969858;28;20183;-72
2024/03/05 10:40:32;;;;;;;29.95;16.92;;;;;;;;;;4985360;28;20742;-70
2024/03/05 10:42:58;;;;;;;29.83;16.40;;;;;;;;;;4989218;28;20685;-70
2024/03/05 10:45:26;;;;;;;28.83;16.88;;;;;;;;;;4989978;28;20192;-70
2024/03/05 10:47:52;;;;;;;31.88;19.10;;;;;;;;;;4990563;28;20176;-70
2024/03/05 10:50:17;;;;;;;35.45;18.13;;;;;;;;;;4993361;28;20195;-70
2024/03/05 10:52:42;;;;;;;31.52;16.73;;;;;;;;;;4992103;28;20585;-71
2024/03/05 10:55:11;;;;;;;30.05;18.05;;;;;;;;;;4986234;28;20200;-69
2024/03/05 10:58:08;;;;;;;27.77;16.67;;;;;;;;;;4995290;28;20175;-69
2024/03/05 11:00:24;;;;;;;30.85;18.15;;;;;;;;;;4978541;28;20748;-70
2024/03/05 11:02:49;;;;;;;30.42;17.63;;;;;;;;;;4976743;28;20215;-70
2024/03/05 11:05:17;;;;;;;33.58;19.48;;;;;;;;;;4977075;28;20568;-70
2024/03/05 11:07:43;;;;;;;32.63;18.58;;;;;;;;;;4993505;28;20304;-70
2024/03/05 11:10:12;;;;;;;31.38;17.60;;;;;;;;;;4988748;28;20179;-70
2024/03/05 11:12:37;;;;;;;35.97;18.93;;;;;;;;;;4992181;28;20187;-69
2024/03/05 11:15:03;;;;;;;31.47;17.17;;;;;;;;;;4994112;28;20199;-70
2024/03/05 11:17:30;;;;;;;27.57;16.23;;;;;;;;;;4989270;28;20196;-70
2024/03/05 11:19:56;;;;;;;28.65;16.65;;;;;;;;;;4992784;28;20172;-70
2024/03/05 11:22:23;;;;;;;30.20;17.10;;;;;;;;;;4990722;28;20199;-69
2024/03/05 11:25:00;;;;;;;27.40;17.17;;;;;;;;;;4990559;28;20175;-69
2024/03/05 11:27:25;;;;;;;28.07;16.43;;;;;;;;;;4985137;28;20167;-71
2024/03/05 11:30:00;;;;;;;27.17;15.77;;;;;;;;;;4997820;28;20190;-69
2024/03/05 11:32:28;;;;;;;26.98;16.17;;;;;;;;;;4995224;28;20226;-69
2024/03/05 11:34:54;;;;;;;30.20;17.70;;;;;;;;;;4992097;28;20176;-70
2024/03/05 11:37:19;;;;;;;28.15;16.77;;;;;;;;;;4976849;28;20666;-70
2024/03/05 11:39:45;;;;;;;27.37;16.83;;;;;;;;;;4995342;28;20172;-70
2024/03/05 11:42:17;;;;;;;29.83;17.80;;;;;;;;;;4985700;28;20281;-69
2024/03/05 11:44:49;;;;;;;27.00;16.67;;;;;;;;;;4984950;28;20670;-70
2024/03/05 11:47:18;;;;;;;24.33;15.47;;;;;;;;;;4993626;28;20183;-70
2024/03/05 11:49:43;;;;;;;25.08;16.60;;;;;;;;;;4993796;28;20183;-69
2024/03/05 11:52:09;;;;;;;26.02;14.00;;;;;;;;;;4989881;28;20190;-70
2024/03/05 11:54:35;;;;;;;22.08;14.38;;;;;;;;;;4968749;28;20183;-70
2024/03/05 11:57:02;;;;;;;29.02;15.27;;;;;;;;;;4975847;28;20282;-70
2024/03/05 11:59:34;;;;;;;24.23;14.05;;;;;;;;;;4986994;28;20685;-71
2024/03/05 12:01:59;;;;;;;22.63;14.43;;;;;;;;;;4988680;28;20333;-70
2024/03/05 12:04:24;;;;;;;24.50;15.63;;;;;;;;;;4988787;28;20262;-70
2024/03/05 12:06:56;;;;;;;23.30;14.65;;;;;;;;;;4987839;28;20199;-70
2024/03/05 12:09:21;;;;;;;20.35;13.43;;;;;;;;;;4990408;28;20183;-70
2024/03/05 12:12:03;;;;;;;18.20;12.15;;;;;;;;;;4993042;28;20179;-70
2024/03/05 12:14:32;;;;;;;17.30;13.02;;;;;;;;;;4974226;28;20261;-70
2024/03/05 12:17:03;;;;;;;20.95;13.48;;;;;;;;;;4984608;28;20286;-70
2024/03/05 12:19:29;;;;;;;19.70;13.07;;;;;;;;;;4964847;28;20191;-69
2024/03/05 12:21:54;;;;;;;18.80;12.98;;;;;;;;;;4981272;28;20215;-70
2024/03/05 12:24:21;;;;;;;24.88;13.77;;;;;;;;;;4990410;28;20211;-70
2024/03/05 12:26:47;;;;;;;17.50;12.73;;;;;;;;;;4985985;28;20576;-70
2024/03/05 12:29:12;;;;;;;17.98;12.63;;;;;;;;;;4992619;28;20167;-70
2024/03/05 12:31:37;;;;;;;20.48;11.77;;;;;;;;;;4975255;28;20194;-69
2024/03/05 12:34:03;;;;;;;19.52;13.13;;;;;;;;;;4975559;28;20182;-70
2024/03/05 12:36:28;;;;;;;17.75;12.02;;;;;;;;;;4971954;28;20242;-70
2024/03/05 12:38:56;;;;;;;17.17;12.13;;;;;;;;;;4985673;28;20592;-70
2024/03/05 12:41:21;;;;;;;19.58;12.30;;;;;;;;;;4991817;28;20616;-70
2024/03/05 12:43:53;;;;;;;20.20;12.07;;;;;;;;;;4986964;28;20207;-70
2024/03/05 12:46:19;;;;;;;20.73;12.90;;;;;;;;;;4988528;28;20214;-70
2024/03/05 12:48:44;;;;;;;17.73;12.27;;;;;;;;;;4992722;28;20172;-70
2024/03/05 12:51:11;;;;;;;20.75;11.73;;;;;;;;;;4990550;28;20184;-70
2024/03/05 12:53:36;;;;;;;19.65;11.25;;;;;;;;;;4991163;28;20208;-69
2024/03/05 12:56:02;;;;;;;15.95;11.05;;;;;;;;;;4991602;28;20238;-70
2024/03/05 12:58:48;;;;;;;16.05;10.43;;;;;;;;;;4991809;28;20262;-70
2024/03/05 13:01:14;;;;;;;16.92;10.80;;;;;;;;;;4988394;28;20195;-70
2024/03/05 13:03:40;;;;;;;13.35;11.05;;;;;;;;;;4984253;28;20212;-70
2024/03/05 13:06:05;;;;;;;15.88;10.18;;;;;;;;;;4988191;28;20207;-69
2024/03/05 13:08:30;;;;;;;16.38;11.13;;;;;;;;;;4987301;28;20176;-69
2024/03/05 13:10:55;;;;;;;18.10;11.32;;;;;;;;;;4981794;28;20220;-70
2024/03/05 13:13:21;;;;;;;12.60;10.05;;;;;;;;;;4988446;28;20175;-71
2024/03/05 13:15:46;;;;;;;17.77;10.73;;;;;;;;;;4984099;28;20269;-70
2024/03/05 13:18:11;;;;;;;16.53;10.93;;;;;;;;;;4968300;28;20187;-70
2024/03/05 13:20:36;;;;;;;15.45;11.20;;;;;;;;;;4988380;28;20559;-69
2024/03/05 13:23:03;;;;;;;16.50;11.57;;;;;;;;;;4987873;28;20195;-70
2024/03/05 13:25:29;;;;;;;18.50;12.18;;;;;;;;;;4991912;28;20199;-69
2024/03/05 13:27:55;;;;;;;17.83;11.53;;;;;;;;;;4992733;28;20179;-70
2024/03/05 13:30:20;;;;;;;14.10;10.52;;;;;;;;;;4984985;28;20263;-70
2024/03/05 13:32:49;;;;;;;16.20;11.43;;;;;;;;;;4988116;28;20545;-70
2024/03/05 13:35:15;;;;;;;17.70;11.73;;;;;;;;;;4985787;28;20206;-69
2024/03/05 13:37:41;;;;;;;15.55;11.63;;;;;;;;;;4986205;28;20706;-70
2024/03/05 13:40:06;;;;;;;13.40;10.30;;;;;;;;;;4986425;28;20188;-70
2024/03/05 13:42:35;;;;;;;18.17;11.65;;;;;;;;;;4992191;28;20199;-70
2024/03/05 13:45:01;;;;;;;17.25;11.23;;;;;;;;;;4962879;28;20191;-69
2024/03/05 13:47:26;;;;;;;18.92;11.23;;;;;;;;;;4967913;28;20579;-69
2024/03/05 13:49:51;;;;;;;16.63;10.57;;;;;;;;;;4989912;28;20210;-70
2024/03/05 13:52:16;;;;;;;14.30;10.35;;;;;;;;;;4987825;28;20245;-69
2024/03/05 13:54:41;;;;;;;16.40;11.32;;;;;;;;;;4991246;28;20239;-69
2024/03/05 13:57:10;;;;;;;16.52;11.70;;;;;;;;;;4989431;28;20502;-69
2024/03/05 13:59:35;;;;;;;20.88;11.38;;;;;;;;;;4991929;28;20168;-70
2024/03/05 14:02:00;;;;;;;14.18;10.50;;;;;;;;;;4987251;28;20204;-70
2024/03/05 14:04:25;;;;;;;16.08;10.82;;;;;;;;;;4991537;28;20172;-70
2024/03/05 14:06:50;;;;;;;17.85;10.73;;;;;;;;;;4990886;28;20183;-69
2024/03/05 14:09:16;;;;;;;15.23;10.70;;;;;;;;;;4988980;28;20227;-69
2024/03/05 14:11:41;;;;;;;18.33;11.27;;;;;;;;;;4983373;28;20596;-70
2024/03/05 14:14:06;;;;;;;18.48;11.55;;;;;;;;;;4987387;28;20175;-70
2024/03/05 14:16:34;;;;;;;13.98;9.95;;;;;;;;;;4994507;23;20227;-70
2024/03/05 14:18:59;;;;;;;12.10;8.88;;;;;;;;;;4987555;28;20180;-69